Time;durP1;ratioP1;P1;durP2;ratioP2;P2;SDS_P1;SDS_P2;PMS_P1;PMS_P2;Temp;Humidity;BMP_temperature;BMP_pressure;BME280_temperature;BME280_humidity;BME280_pressure;Samples;Min_cycle;Max_cycle;Signal;HPM_P1;HPM_P2
2023/09/24 00:00:21;;;;;;;;;;;;;;;13.43;65.21;98662.09;5029898;28;19925;-61
2023/09/24 00:02:49;;;;;;;;;;;;;;;13.40;65.18;98676.34;5030998;28;19925;-62
2023/09/24 00:05:17;;;;;;;;;;;;;;;13.46;65.00;98674.31;5030652;28;19925;-61
2023/09/24 00:07:46;;;;;;;;;;;;;;;13.45;65.15;98669.97;5029328;28;20405;-61
2023/09/24 00:10:14;;;;;;;;;;;;;;;13.37;65.15;98671.53;5023626;28;19925;-61
2023/09/24 00:12:42;;;;;;;;;;;;;;;13.33;65.42;98676.00;5025969;28;19940;-61
2023/09/24 00:15:12;;;;;;;;;;;;;;;13.36;65.18;98672.63;5022657;28;19925;-61
2023/09/24 00:17:41;;;;;;;;;;;;;;;13.35;65.07;98671.03;5027195;28;19925;-61
2023/09/24 00:20:09;;;;;;;;;;;;;;;13.32;65.04;98677.91;5029343;28;19925;-62
2023/09/24 00:22:38;;;;;;;;;;;;;;;13.29;65.12;98675.78;5028386;28;19925;-61
2023/09/24 00:25:06;;;;;;;;;;;;;;;13.29;65.09;98681.25;5028600;28;20678;-61
2023/09/24 00:27:35;;;;;;;;;;;;;;;13.21;65.03;98681.16;5028360;28;19943;-61
2023/09/24 00:30:04;;;;;;;;;;;;;;;13.20;65.43;98685.00;5011110;28;19939;-61
2023/09/24 00:32:31;;;;;;;;;;;;;;;13.17;65.46;98682.91;5008621;28;19925;-61
2023/09/24 00:35:01;;;;;;;;;;;;;;;13.15;65.55;98682.38;5028659;28;19936;-61
2023/09/24 00:37:28;;;;;;;;;;;;;;;13.14;65.64;98688.97;5029452;28;19987;-61
2023/09/24 00:39:56;;;;;;;;;;;;;;;13.07;65.75;98686.69;5029901;28;19935;-61
2023/09/24 00:42:27;;;;;;;;;;;;;;;13.13;65.59;98690.09;5028627;28;19925;-61
2023/09/24 00:44:55;;;;;;;;;;;;;;;13.00;65.84;98687.09;5012052;28;19925;-61
2023/09/24 00:47:23;;;;;;;;;;;;;;;13.08;65.75;98683.63;5028612;28;19929;-61
2023/09/24 00:49:53;;;;;;;;;;;;;;;13.13;65.46;98687.38;5028594;28;19932;-61
2023/09/24 00:52:22;;;;;;;;;;;;;;;13.15;65.72;98685.13;5028078;28;19925;-61
2023/09/24 00:54:50;;;;;;;;;;;;;;;13.15;65.43;98690.56;5030834;28;19929;-61
2023/09/24 00:57:17;;;;;;;;;;;;;;;13.14;65.46;98691.69;5031213;28;19932;-63
2023/09/24 00:59:46;;;;;;;;;;;;;;;13.08;65.64;98699.19;5033769;28;20554;-61
2023/09/24 01:02:14;;;;;;;;;;;;;;;13.00;65.76;98697.22;5030687;28;19929;-61
2023/09/24 01:04:42;;;;;;;;;;;;;;;12.99;65.65;98701.03;5027795;28;19925;-61
2023/09/24 01:07:10;;;;;;;;;;;;;;;12.91;65.78;98701.78;5011765;28;19929;-62
2023/09/24 01:09:42;;;;;;;;;;;;;;;12.95;65.58;98703.59;5035965;28;19933;-61
2023/09/24 01:12:20;;;;;;;;;;;;;;;12.92;65.70;98697.94;5028525;28;20387;-61
2023/09/24 01:14:49;;;;;;;;;;;;;;;12.87;65.88;98698.03;5006897;28;19926;-61
2023/09/24 01:17:18;;;;;;;;;;;;;;;12.88;66.00;98697.72;5008613;28;19933;-61
2023/09/24 01:19:45;;;;;;;;;;;;;;;12.90;65.83;98700.16;5022896;28;20446;-61
2023/09/24 01:22:15;;;;;;;;;;;;;;;12.84;65.90;98702.22;5025391;28;20676;-61
2023/09/24 01:24:42;;;;;;;;;;;;;;;12.76;65.90;98708.38;5027601;28;19926;-61
2023/09/24 01:27:10;;;;;;;;;;;;;;;12.76;66.15;98702.91;5029551;28;19931;-61
2023/09/24 01:29:38;;;;;;;;;;;;;;;12.67;66.17;98705.53;5028441;28;20286;-61
2023/09/24 01:32:06;;;;;;;;;;;;;;;12.62;66.28;98713.03;5010974;28;20401;-61
2023/09/24 01:34:35;;;;;;;;;;;;;;;12.66;66.15;98714.03;5029147;28;19933;-61
2023/09/24 01:37:08;;;;;;;;;;;;;;;12.69;65.70;98718.91;5027118;28;19936;-61
2023/09/24 01:39:37;;;;;;;;;;;;;;;12.70;65.52;98712.31;5026307;28;19925;-61
2023/09/24 01:42:07;;;;;;;;;;;;;;;12.73;65.46;98719.88;5022686;28;20838;-61
2023/09/24 01:44:35;;;;;;;;;;;;;;;12.65;65.33;98726.06;5027245;28;19947;-61
2023/09/24 01:47:03;;;;;;;;;;;;;;;12.57;65.32;98731.13;5011116;28;19925;-61
2023/09/24 01:49:32;;;;;;;;;;;;;;;12.50;65.44;98719.81;5029233;28;19925;-61
2023/09/24 01:51:59;;;;;;;;;;;;;;;12.49;65.39;98720.13;5028000;28;19929;-61
2023/09/24 01:54:28;;;;;;;;;;;;;;;12.47;65.43;98723.16;5004772;28;19925;-61
2023/09/24 01:56:59;;;;;;;;;;;;;;;12.49;65.61;98720.91;5028364;28;19925;-61
2023/09/24 01:59:27;;;;;;;;;;;;;;;12.48;65.63;98724.75;5004948;28;20040;-61
2023/09/24 02:01:55;;;;;;;;;;;;;;;12.45;65.62;98730.81;5010888;28;19951;-61
2023/09/24 02:04:23;;;;;;;;;;;;;;;12.42;65.29;98734.16;5005082;28;19926;-61
2023/09/24 02:06:52;;;;;;;;;;;;;;;12.22;65.71;98738.06;5007198;28;20551;-61
2023/09/24 02:09:20;;;;;;;;;;;;;;;12.36;65.42;98738.09;5009841;28;19925;-62
2023/09/24 02:11:52;;;;;;;;;;;;;;;12.25;65.27;98736.66;5026058;28;20330;-61
2023/09/24 02:14:21;;;;;;;;;;;;;;;12.15;65.70;98739.59;5007078;28;19971;-61
2023/09/24 02:16:50;;;;;;;;;;;;;;;12.26;65.79;98749.19;5022980;28;19925;-61
2023/09/24 02:19:18;;;;;;;;;;;;;;;12.23;65.66;98745.13;5026353;28;19986;-61
2023/09/24 02:21:48;;;;;;;;;;;;;;;12.12;65.86;98753.81;5026722;28;20301;-61
2023/09/24 02:24:15;;;;;;;;;;;;;;;12.22;65.46;98750.91;5023552;28;20295;-61
2023/09/24 02:26:43;;;;;;;;;;;;;;;12.20;65.53;98755.84;5010403;28;19932;-61
2023/09/24 02:29:11;;;;;;;;;;;;;;;12.17;65.52;98756.44;5023840;28;19925;-61
2023/09/24 02:31:40;;;;;;;;;;;;;;;12.16;65.24;98754.81;5006891;28;19960;-61
2023/09/24 02:34:08;;;;;;;;;;;;;;;12.09;65.50;98759.84;5024438;28;20402;-61
2023/09/24 02:36:37;;;;;;;;;;;;;;;12.09;65.20;98766.13;5019958;28;20306;-61
2023/09/24 02:39:05;;;;;;;;;;;;;;;12.01;65.30;98764.88;5027190;28;19929;-61
2023/09/24 02:41:33;;;;;;;;;;;;;;;12.01;65.11;98770.31;5027027;28;20004;-61
2023/09/24 02:44:02;;;;;;;;;;;;;;;12.05;64.99;98767.81;5009473;28;19926;-61
2023/09/24 02:46:29;;;;;;;;;;;;;;;12.02;64.96;98773.84;5020296;28;19932;-61
2023/09/24 02:48:59;;;;;;;;;;;;;;;12.05;64.71;98781.44;5010351;28;19929;-61
2023/09/24 02:51:28;;;;;;;;;;;;;;;12.03;64.52;98786.38;5009702;28;20382;-61
2023/09/24 02:53:56;;;;;;;;;;;;;;;11.90;64.68;98787.16;5024495;28;19932;-61
2023/09/24 02:56:24;;;;;;;;;;;;;;;11.91;64.53;98792.28;5022469;28;20293;-63
2023/09/24 02:58:52;;;;;;;;;;;;;;;11.84;64.62;98791.88;5028344;28;19951;-61
2023/09/24 03:01:20;;;;;;;;;;;;;;;11.74;64.50;98787.38;5008048;28;19931;-61
2023/09/24 03:03:48;;;;;;;;;;;;;;;11.74;64.46;98794.72;5009375;28;19925;-61
2023/09/24 03:06:19;;;;;;;;;;;;;;;11.83;64.43;98801.16;5006739;28;19926;-61
2023/09/24 03:08:49;;;;;;;;;;;;;;;11.65;64.56;98805.47;5009675;28;19979;-61
2023/09/24 03:11:17;;;;;;;;;;;;;;;11.61;64.73;98811.81;5009742;28;19960;-61
2023/09/24 03:13:45;;;;;;;;;;;;;;;11.71;64.59;98817.91;5008677;28;20008;-61
2023/09/24 03:16:13;;;;;;;;;;;;;;;11.71;64.52;98823.34;5028471;28;19933;-61
2023/09/24 03:18:42;;;;;;;;;;;;;;;11.72;64.23;98821.44;5013001;28;19933;-61
2023/09/24 03:21:12;;;;;;;;;;;;;;;11.62;64.44;98814.25;5014471;28;20461;-61
2023/09/24 03:23:41;;;;;;;;;;;;;;;11.66;64.51;98819.88;5011748;28;19936;-61
2023/09/24 03:26:14;;;;;;;;;;;;;;;11.63;64.51;98829.47;5013708;28;19929;-61
2023/09/24 03:28:42;;;;;;;;;;;;;;;11.59;64.50;98833.06;5029672;28;19925;-61
2023/09/24 03:31:12;;;;;;;;;;;;;;;11.64;64.52;98828.34;5025851;28;19980;-61
2023/09/24 03:33:42;;;;;;;;;;;;;;;11.61;64.31;98830.84;5013566;28;19940;-62
2023/09/24 03:36:10;;;;;;;;;;;;;;;11.58;64.28;98832.25;5016801;28;19925;-61
2023/09/24 03:38:37;;;;;;;;;;;;;;;11.45;64.40;98833.00;5030986;28;19932;-65
2023/09/24 03:41:08;;;;;;;;;;;;;;;11.39;64.26;98845.06;5030221;28;19979;-61
2023/09/24 03:43:36;;;;;;;;;;;;;;;11.35;64.47;98844.84;5029818;28;20401;-61
2023/09/24 03:46:05;;;;;;;;;;;;;;;11.40;64.10;98836.63;5013523;28;20609;-61
2023/09/24 03:48:33;;;;;;;;;;;;;;;11.41;64.22;98848.31;5011947;28;19929;-61
2023/09/24 03:51:01;;;;;;;;;;;;;;;11.42;64.18;98845.28;5025855;28;19972;-61
2023/09/24 03:53:29;;;;;;;;;;;;;;;11.43;64.25;98862.41;5030691;28;19960;-61
2023/09/24 03:55:57;;;;;;;;;;;;;;;11.27;64.51;98862.63;5013094;28;19936;-61
2023/09/24 03:58:29;;;;;;;;;;;;;;;11.23;64.54;98868.94;5029287;28;19972;-61
2023/09/24 04:00:57;;;;;;;;;;;;;;;11.12;64.99;98867.44;5021607;28;19952;-61
2023/09/24 04:03:24;;;;;;;;;;;;;;;11.07;65.02;98864.78;5012663;28;19979;-61
2023/09/24 04:05:53;;;;;;;;;;;;;;;11.00;65.01;98860.53;5010135;28;19932;-61
2023/09/24 04:08:21;;;;;;;;;;;;;;;10.89;65.21;98871.81;5028376;28;20441;-61
2023/09/24 04:10:49;;;;;;;;;;;;;;;10.97;64.88;98869.28;5030393;28;19925;-61
2023/09/24 04:13:17;;;;;;;;;;;;;;;11.02;64.83;98866.50;5028954;28;20422;-61
2023/09/24 04:15:46;;;;;;;;;;;;;;;11.01;64.94;98878.44;5033068;28;19925;-61
2023/09/24 04:18:14;;;;;;;;;;;;;;;10.93;65.03;98870.94;5029741;28;19980;-61
2023/09/24 04:20:45;;;;;;;;;;;;;;;10.98;65.16;98872.81;5030236;28;19979;-61
2023/09/24 04:23:13;;;;;;;;;;;;;;;11.01;65.23;98877.63;5030615;28;19933;-61
2023/09/24 04:25:41;;;;;;;;;;;;;;;11.01;64.87;98873.00;5023600;28;20441;-61
2023/09/24 04:28:13;;;;;;;;;;;;;;;10.88;65.10;98879.16;5029691;28;19925;-61
2023/09/24 04:30:41;;;;;;;;;;;;;;;10.92;65.04;98879.38;5030728;28;19925;-61
2023/09/24 04:33:10;;;;;;;;;;;;;;;10.91;65.15;98884.00;5030274;28;19936;-61
2023/09/24 04:35:38;;;;;;;;;;;;;;;11.00;65.23;98897.78;5029754;28;19925;-61
2023/09/24 04:38:07;;;;;;;;;;;;;;;10.97;64.82;98901.91;5029767;28;19929;-61
2023/09/24 04:40:34;;;;;;;;;;;;;;;10.90;65.09;98903.34;5011562;28;19929;-61
2023/09/24 04:43:02;;;;;;;;;;;;;;;10.83;65.25;98903.69;5012441;28;19957;-61
2023/09/24 04:45:30;;;;;;;;;;;;;;;10.94;65.24;98915.25;5023704;28;19925;-61
2023/09/24 04:47:58;;;;;;;;;;;;;;;10.92;64.88;98914.72;5029936;28;19969;-61
2023/09/24 04:50:27;;;;;;;;;;;;;;;10.89;64.88;98924.28;5027323;28;20323;-61
2023/09/24 04:52:55;;;;;;;;;;;;;;;10.89;65.09;98918.84;5030729;28;19929;-61
2023/09/24 04:55:24;;;;;;;;;;;;;;;10.87;64.99;98918.31;5030482;28;19955;-61
2023/09/24 04:57:52;;;;;;;;;;;;;;;10.76;65.31;98924.97;5030102;28;19936;-61
2023/09/24 05:00:20;;;;;;;;;;;;;;;10.73;65.49;98922.81;5029237;28;19925;-61
2023/09/24 05:02:48;;;;;;;;;;;;;;;10.78;65.26;98922.75;5026593;28;19929;-61
2023/09/24 05:05:16;;;;;;;;;;;;;;;10.68;65.57;98926.38;5030320;28;20310;-61
2023/09/24 05:07:45;;;;;;;;;;;;;;;10.64;66.04;98930.75;5029692;28;19932;-61
2023/09/24 05:10:13;;;;;;;;;;;;;;;10.65;66.06;98931.56;5029883;28;19925;-61
2023/09/24 05:12:41;;;;;;;;;;;;;;;10.70;65.89;98926.09;5015780;28;19935;-61
2023/09/24 05:15:09;;;;;;;;;;;;;;;10.80;65.85;98926.00;5021785;28;20007;-61
2023/09/24 05:17:37;;;;;;;;;;;;;;;10.74;65.95;98932.59;5014036;28;19936;-61
2023/09/24 05:20:07;;;;;;;;;;;;;;;10.77;65.83;98934.75;5029892;28;20059;-61
2023/09/24 05:22:35;;;;;;;;;;;;;;;10.82;65.86;98942.84;5016814;28;19925;-61
2023/09/24 05:25:05;;;;;;;;;;;;;;;10.71;65.87;98946.75;5022489;28;19957;-60
2023/09/24 05:27:33;;;;;;;;;;;;;;;10.61;66.09;98952.28;5028404;28;19925;-61
2023/09/24 05:30:02;;;;;;;;;;;;;;;10.58;65.91;98948.22;5008717;28;19952;-61
2023/09/24 05:32:29;;;;;;;;;;;;;;;10.62;65.80;98956.63;5020623;28;19929;-61
2023/09/24 05:34:57;;;;;;;;;;;;;;;10.64;65.53;98955.22;5008800;28;20011;-61
2023/09/24 05:37:25;;;;;;;;;;;;;;;10.60;65.17;98958.78;5026186;28;19931;-61
2023/09/24 05:39:52;;;;;;;;;;;;;;;10.48;65.19;98959.97;5030113;28;20298;-61
2023/09/24 05:42:21;;;;;;;;;;;;;;;10.42;64.83;98969.28;5029298;28;19932;-61
2023/09/24 05:44:50;;;;;;;;;;;;;;;10.39;64.81;98969.06;5029021;28;19948;-61
2023/09/24 05:47:17;;;;;;;;;;;;;;;10.42;64.43;98977.44;5028620;28;19932;-61
2023/09/24 05:49:45;;;;;;;;;;;;;;;10.40;64.62;98966.03;5028113;28;19925;-60
2023/09/24 05:52:13;;;;;;;;;;;;;;;10.48;64.48;98965.41;5027378;28;20298;-60
2023/09/24 05:54:41;;;;;;;;;;;;;;;10.55;64.06;98967.03;5013008;28;19982;-60
2023/09/24 05:57:09;;;;;;;;;;;;;;;10.59;64.26;98974.28;5025035;28;20302;-61
2023/09/24 05:59:38;;;;;;;;;;;;;;;10.61;64.57;98971.31;5024112;28;19934;-60
2023/09/24 06:02:07;;;;;;;;;;;;;;;10.59;64.20;98978.91;5029157;28;20323;-60
2023/09/24 06:04:34;;;;;;;;;;;;;;;10.67;64.43;98968.25;5022959;28;19979;-61
2023/09/24 06:07:03;;;;;;;;;;;;;;;10.66;64.68;98973.97;5025124;28;19986;-61
2023/09/24 06:09:30;;;;;;;;;;;;;;;10.60;65.25;98972.38;5024416;28;20298;-61
2023/09/24 06:11:58;;;;;;;;;;;;;;;10.56;65.74;98976.78;5027510;28;19925;-61
2023/09/24 06:14:26;;;;;;;;;;;;;;;10.53;66.19;98972.72;5023901;28;19925;-62
2023/09/24 06:16:55;;;;;;;;;;;;;;;10.58;65.92;98977.31;5022310;28;19932;-62
2023/09/24 06:19:22;;;;;;;;;;;;;;;10.59;66.00;98976.19;5027339;28;20421;-61
2023/09/24 06:21:51;;;;;;;;;;;;;;;10.58;66.29;98982.75;5027058;28;19936;-61
2023/09/24 06:24:19;;;;;;;;;;;;;;;10.68;66.34;98979.94;5028103;28;19970;-61
2023/09/24 06:26:48;;;;;;;;;;;;;;;10.62;66.30;98979.16;5018658;28;20374;-61
2023/09/24 06:29:15;;;;;;;;;;;;;;;10.67;66.67;98981.03;5023204;28;20560;-62
2023/09/24 06:31:43;;;;;;;;;;;;;;;10.69;66.47;98982.34;5028864;28;19925;-61
2023/09/24 06:34:12;;;;;;;;;;;;;;;10.72;66.33;98983.72;5026878;28;19929;-61
2023/09/24 06:36:40;;;;;;;;;;;;;;;10.69;66.38;98985.06;5028979;28;19933;-61
2023/09/24 06:39:09;;;;;;;;;;;;;;;10.71;66.32;98987.53;5029023;28;20298;-61
2023/09/24 06:41:37;;;;;;;;;;;;;;;10.72;66.59;98981.00;5016016;28;19926;-61
2023/09/24 06:44:05;;;;;;;;;;;;;;;10.77;66.35;98986.38;5028148;28;19925;-61
2023/09/24 06:46:32;;;;;;;;;;;;;;;10.87;66.36;98975.41;5027610;28;20488;-61
2023/09/24 06:49:00;;;;;;;;;;;;;;;10.95;65.97;98980.22;5010672;28;19929;-61
2023/09/24 06:51:29;;;;;;;;;;;;;;;10.98;65.89;98987.81;5033213;28;19928;-61
2023/09/24 06:53:57;;;;;;;;;;;;;;;10.97;65.88;98986.19;5032093;28;19925;-61
2023/09/24 06:56:25;;;;;;;;;;;;;;;11.06;66.37;98996.44;5033122;28;19929;-62
2023/09/24 06:58:53;;;;;;;;;;;;;;;11.02;65.88;98996.19;5028456;28;19925;-61
2023/09/24 07:01:21;;;;;;;;;;;;;;;11.12;65.99;99000.72;5014782;28;19933;-61
2023/09/24 07:03:49;;;;;;;;;;;;;;;11.19;65.74;98998.47;5032447;28;19925;-61
2023/09/24 07:06:17;;;;;;;;;;;;;;;11.20;65.73;99006.34;5017671;28;19925;-61
2023/09/24 07:08:46;;;;;;;;;;;;;;;11.27;65.86;99016.88;5025580;28;19932;-61
2023/09/24 07:11:24;;;;;;;;;;;;;;;11.37;65.72;99008.59;5011048;28;19926;-61
2023/09/24 07:13:52;;;;;;;;;;;;;;;11.39;65.89;99006.38;5026999;28;19925;-61
2023/09/24 07:16:21;;;;;;;;;;;;;;;11.42;65.72;99013.97;5013348;28;19925;-61
2023/09/24 07:18:50;;;;;;;;;;;;;;;11.35;66.11;99013.53;5017021;28;20433;-61
2023/09/24 07:21:18;;;;;;;;;;;;;;;11.34;66.26;99019.25;5028273;28;19925;-61
2023/09/24 07:24:01;;;;;;;;;;;;;;;11.27;66.09;99016.88;5030382;28;19925;-61
2023/09/24 07:26:29;;;;;;;;;;;;;;;11.40;66.48;99021.63;5031553;28;19925;-62
2023/09/24 07:28:57;;;;;;;;;;;;;;;11.47;66.13;99024.00;5032158;28;19926;-61
2023/09/24 07:31:25;;;;;;;;;;;;;;;11.53;66.01;99020.13;5029653;28;20336;-61
2023/09/24 07:33:57;;;;;;;;;;;;;;;11.61;65.68;99022.22;5031496;28;20433;-61
2023/09/24 07:36:25;;;;;;;;;;;;;;;11.70;65.62;99030.53;5032367;28;20674;-61
2023/09/24 07:38:55;;;;;;;;;;;;;;;11.78;65.50;99025.25;5032276;28;20555;-61
2023/09/24 07:41:24;;;;;;;;;;;;;;;11.85;65.34;99022.19;5032466;28;19932;-65
2023/09/24 07:43:53;;;;;;;;;;;;;;;11.94;65.35;99023.19;5030697;28;19987;-62
2023/09/24 07:46:20;;;;;;;;;;;;;;;12.01;65.06;99031.78;5030700;28;20619;-62
2023/09/24 07:48:48;;;;;;;;;;;;;;;12.05;65.10;99037.47;5022394;28;19932;-62
2023/09/24 07:51:17;;;;;;;;;;;;;;;12.10;64.86;99031.13;5026443;28;19932;-61
2023/09/24 07:53:45;;;;;;;;;;;;;;;12.10;64.87;99031.13;5030570;28;19932;-62
2023/09/24 07:56:13;;;;;;;;;;;;;;;12.09;64.66;99024.06;5031339;28;19925;-62
2023/09/24 07:58:42;;;;;;;;;;;;;;;12.16;64.90;99016.34;5031765;28;19933;-62
2023/09/24 08:01:11;;;;;;;;;;;;;;;12.26;65.03;99021.66;5030154;28;19941;-62
2023/09/24 08:03:39;;;;;;;;;;;;;;;12.36;64.75;99026.94;5030234;28;19975;-62
2023/09/24 08:06:07;;;;;;;;;;;;;;;12.43;64.88;99021.13;5030147;28;19944;-62
2023/09/24 08:08:35;;;;;;;;;;;;;;;12.53;64.90;99027.22;5027821;28;20011;-62
2023/09/24 08:11:18;;;;;;;;;;;;;;;12.67;64.55;99023.72;5028849;28;19979;-62
2023/09/24 08:13:47;;;;;;;;;;;;;;;12.73;64.81;99017.06;5004190;28;19961;-62
2023/09/24 08:16:18;;;;;;;;;;;;;;;12.81;64.47;99027.31;5008856;28;19952;-62
2023/09/24 08:18:46;;;;;;;;;;;;;;;12.81;64.53;99021.84;5008034;28;19937;-62
2023/09/24 08:21:14;;;;;;;;;;;;;;;12.89;64.39;99031.25;4988155;28;19992;-62
2023/09/24 08:23:42;;;;;;;;;;;;;;;13.00;64.29;99025.34;5004165;28;19929;-62
2023/09/24 08:26:10;;;;;;;;;;;;;;;13.11;64.11;99029.50;5010776;28;19936;-62
2023/09/24 08:28:37;;;;;;;;;;;;;;;13.20;63.83;99029.59;5009336;28;19929;-62
2023/09/24 08:31:10;;;;;;;;;;;;;;;13.26;63.90;99033.09;5008436;28;19973;-62
2023/09/24 08:33:38;;;;;;;;;;;;;;;13.35;63.87;99031.28;5010060;28;19932;-62
2023/09/24 08:36:09;;;;;;;;;;;;;;;13.42;63.45;99030.88;5010124;28;19926;-62
2023/09/24 08:38:38;;;;;;;;;;;;;;;13.54;63.33;99036.66;5004150;28;19926;-62
2023/09/24 08:41:10;;;;;;;;;;;;;;;13.58;63.12;99035.75;5009269;28;19934;-62
2023/09/24 08:43:38;;;;;;;;;;;;;;;13.60;62.39;99035.44;5007687;28;19933;-65
2023/09/24 08:46:07;;;;;;;;;;;;;;;13.59;62.68;99036.56;5009929;28;20063;-62
2023/09/24 08:48:36;;;;;;;;;;;;;;;13.64;62.81;99041.94;5007862;28;19932;-62
2023/09/24 08:51:04;;;;;;;;;;;;;;;13.72;62.76;99048.59;4996894;28;19933;-62
2023/09/24 08:53:33;;;;;;;;;;;;;;;13.77;62.55;99048.47;4999721;28;19937;-62
2023/09/24 08:56:01;;;;;;;;;;;;;;;13.74;62.46;99044.47;5006855;28;19925;-62
2023/09/24 08:58:30;;;;;;;;;;;;;;;13.79;62.49;99046.25;5008493;28;20724;-63
2023/09/24 09:00:58;;;;;;;;;;;;;;;13.86;62.46;99049.41;5006916;28;19925;-62
2023/09/24 09:03:25;;;;;;;;;;;;;;;13.91;62.62;99048.50;5006540;28;20362;-62
2023/09/24 09:05:54;;;;;;;;;;;;;;;13.93;62.94;99047.06;5007377;28;19926;-62
2023/09/24 09:08:22;;;;;;;;;;;;;;;13.97;63.11;99052.72;5003419;28;19934;-63
2023/09/24 09:10:50;;;;;;;;;;;;;;;13.94;63.63;99048.66;4986319;28;20339;-62
2023/09/24 09:13:18;;;;;;;;;;;;;;;13.99;63.49;99051.28;5022600;28;19925;-62
2023/09/24 09:15:46;;;;;;;;;;;;;;;14.05;63.42;99043.78;5028171;28;19933;-62
2023/09/24 09:18:21;;;;;;;;;;;;;;;14.10;63.58;99047.22;5027914;28;19936;-63
2023/09/24 09:20:49;;;;;;;;;;;;;;;14.13;63.65;99045.81;5025262;28;19929;-62
2023/09/24 09:23:30;;;;;;;;;;;;;;;14.14;63.53;99041.97;5027020;28;19925;-66
2023/09/24 09:25:58;;;;;;;;;;;;;;;14.15;63.79;99047.09;5031897;28;19964;-62
2023/09/24 09:28:26;;;;;;;;;;;;;;;14.19;63.12;99049.25;5028360;28;19956;-62
2023/09/24 09:31:00;;;;;;;;;;;;;;;14.24;62.91;99036.28;5025770;28;19929;-62
2023/09/24 09:33:29;;;;;;;;;;;;;;;14.31;63.16;99036.66;5023895;28;19976;-62
2023/09/24 09:35:58;;;;;;;;;;;;;;;14.41;62.79;99030.13;5027691;28;19931;-63
2023/09/24 09:38:26;;;;;;;;;;;;;;;14.51;62.58;99040.88;5026379;28;19929;-62
2023/09/24 09:40:56;;;;;;;;;;;;;;;14.57;62.36;99039.63;5023902;28;19971;-62
2023/09/24 09:43:25;;;;;;;;;;;;;;;14.58;61.81;99043.97;5027321;28;19932;-62
2023/09/24 09:45:54;;;;;;;;;;;;;;;14.54;62.11;99039.44;5026801;28;20387;-62
2023/09/24 09:48:26;;;;;;;;;;;;;;;14.52;62.50;99033.47;5026975;28;19929;-63
2023/09/24 09:50:55;;;;;;;;;;;;;;;14.51;62.61;99029.13;5025955;28;19933;-62
2023/09/24 09:53:23;;;;;;;;;;;;;;;14.54;62.76;99033.97;5024430;28;19951;-63
2023/09/24 09:55:53;;;;;;;;;;;;;;;14.61;62.40;99035.16;5025318;28;19936;-62
2023/09/24 09:58:22;;;;;;;;;;;;;;;14.71;62.54;99028.66;5027119;28;19971;-62
2023/09/24 10:00:51;;;;;;;;;;;;;;;14.76;61.79;99024.97;5027345;28;19936;-62
2023/09/24 10:03:19;;;;;;;;;;;;;;;14.80;61.52;99031.41;5024773;28;19936;-62
2023/09/24 10:05:48;;;;;;;;;;;;;;;14.88;61.37;99036.16;5025919;28;19925;-62
2023/09/24 10:08:35;;;;;;;;;;;;;;;14.93;61.23;99039.56;5018298;28;19929;-62
2023/09/24 10:11:03;;;;;;;;;;;;;;;14.95;59.89;99033.78;5028960;28;19932;-62
2023/09/24 10:13:51;;;;;;;;;;;;;;;15.02;60.02;99028.69;5027223;28;19925;-62
2023/09/24 10:16:30;;;;;;;;;;;;;;;15.12;60.36;99033.88;5017852;28;20420;-62
2023/09/24 10:18:59;;;;;;;;;;;;;;;15.17;59.81;99033.75;5023930;28;20771;-62
2023/09/24 10:21:27;;;;;;;;;;;;;;;15.26;59.95;99027.50;5009368;28;19971;-62
2023/09/24 10:23:55;;;;;;;;;;;;;;;15.31;59.13;99028.19;5015653;28;19932;-62
2023/09/24 10:26:41;;;;;;;;;;;;;;;15.37;59.35;99026.13;5028827;28;19933;-62
2023/09/24 10:29:11;;;;;;;;;;;;;;;15.46;59.82;99026.97;5028760;28;19925;-61
2023/09/24 10:31:50;;;;;;;;;;;;;;;15.51;59.68;99029.56;5028709;28;19925;-62
2023/09/24 10:34:18;;;;;;;;;;;;;;;15.57;60.11;99022.00;5028805;28;19929;-61
2023/09/24 10:36:46;;;;;;;;;;;;;;;15.66;60.38;99023.69;5028269;28;20396;-61
2023/09/24 10:39:13;;;;;;;;;;;;;;;15.75;59.99;99014.69;5023467;28;19925;-61
2023/09/24 10:41:56;;;;;;;;;;;;;;;15.81;58.62;99021.63;5028650;28;20458;-62
2023/09/24 10:44:26;;;;;;;;;;;;;;;15.84;58.56;99015.50;5016183;28;20405;-62
2023/09/24 10:46:55;;;;;;;;;;;;;;;15.79;57.76;99016.47;5022837;28;19955;-61
2023/09/24 10:49:24;;;;;;;;;;;;;;;15.77;57.87;99013.25;5025402;28;20420;-63
2023/09/24 10:51:57;;;;;;;;;;;;;;;15.74;58.17;99015.81;5018790;28;19982;-62
2023/09/24 10:54:24;;;;;;;;;;;;;;;15.75;58.22;99009.19;5024412;28;20419;-62
2023/09/24 10:56:52;;;;;;;;;;;;;;;15.72;57.76;99010.66;5028415;28;19936;-61
2023/09/24 10:59:33;;;;;;;;;;;;;;;15.73;57.58;99005.97;5014759;28;19925;-62
2023/09/24 11:02:14;;;;;;;;;;;;;;;15.73;57.33;98997.75;5010689;28;20358;-62
2023/09/24 11:04:44;;;;;;;;;;;;;;;15.77;57.19;98998.75;5018554;28;19960;-62
2023/09/24 11:07:12;;;;;;;;;;;;;;;15.81;56.59;99002.44;5021034;28;19935;-61
2023/09/24 11:09:40;;;;;;;;;;;;;;;15.87;56.93;98999.25;5018956;28;19925;-62
2023/09/24 11:12:08;;;;;;;;;;;;;;;15.95;56.11;98995.69;5012058;28;19931;-62
2023/09/24 11:14:37;;;;;;;;;;;;;;;16.01;54.52;98999.09;5015941;28;19925;-62
2023/09/24 11:17:05;;;;;;;;;;;;;;;15.96;53.92;99002.00;5023687;28;19936;-62
2023/09/24 11:19:42;;;;;;;;;;;;;;;15.95;54.16;99000.38;5007698;28;19933;-62
2023/09/24 11:22:19;;;;;;;;;;;;;;;15.94;54.31;98998.78;5024365;28;19929;-62
2023/09/24 11:24:50;;;;;;;;;;;;;;;15.96;54.24;98999.25;5021979;28;19925;-61
2023/09/24 11:27:18;;;;;;;;;;;;;;;15.97;54.18;98990.69;5023549;28;20397;-62
2023/09/24 11:29:59;;;;;;;;;;;;;;;16.02;54.73;98997.97;5021935;28;19960;-62
2023/09/24 11:32:27;;;;;;;;;;;;;;;16.04;54.84;98995.72;5023559;28;20283;-62
2023/09/24 11:35:08;;;;;;;;;;;;;;;16.09;54.78;98990.09;5021180;28;19929;-62
2023/09/24 11:37:46;;;;;;;;;;;;;;;16.13;54.58;98993.78;5023260;28;19929;-62
2023/09/24 11:40:23;;;;;;;;;;;;;;;16.20;53.65;98983.16;5027382;28;19933;-61
2023/09/24 11:42:53;;;;;;;;;;;;;;;16.26;52.77;98980.25;5022651;28;20381;-62
2023/09/24 11:45:39;;;;;;;;;;;;;;;16.29;53.00;98976.84;5026640;28;19929;-62
2023/09/24 11:48:10;;;;;;;;;;;;;;;16.31;52.11;98977.34;5023423;28;19929;-62
2023/09/24 11:50:38;;;;;;;;;;;;;;;16.33;52.22;98966.84;5025468;28;19979;-62
2023/09/24 11:53:06;;;;;;;;;;;;;;;16.42;52.09;98971.22;5023398;28;19926;-61
2023/09/24 11:55:34;;;;;;;;;;;;;;;16.46;51.59;98974.94;5023632;28;19929;-62
2023/09/24 11:58:03;;;;;;;;;;;;;;;16.50;51.48;98975.06;5026390;28;19925;-62
2023/09/24 12:00:30;;;;;;;;;;;;;;;16.48;51.12;98969.09;5031633;28;19925;-62
2023/09/24 12:03:00;;;;;;;;;;;;;;;16.45;51.00;98965.06;5024437;28;19925;-62
2023/09/24 12:05:28;;;;;;;;;;;;;;;16.47;51.27;98967.50;5029783;28;19971;-62
2023/09/24 12:08:00;;;;;;;;;;;;;;;16.47;51.39;98960.09;5028581;28;19925;-62
2023/09/24 12:10:28;;;;;;;;;;;;;;;16.50;51.71;98959.41;5030365;28;19947;-62
2023/09/24 12:13:01;;;;;;;;;;;;;;;16.53;51.28;98955.22;5029584;28;20398;-62
2023/09/24 12:15:30;;;;;;;;;;;;;;;16.58;51.39;98959.75;5027205;28;19925;-62
2023/09/24 12:17:59;;;;;;;;;;;;;;;16.71;51.42;98945.06;5023654;28;19925;-62
2023/09/24 12:20:27;;;;;;;;;;;;;;;16.72;51.17;98944.75;5031054;28;20275;-62
2023/09/24 12:22:57;;;;;;;;;;;;;;;16.76;51.10;98944.88;5031222;28;20407;-61
2023/09/24 12:25:24;;;;;;;;;;;;;;;16.77;50.13;98938.25;5030856;28;19925;-62
2023/09/24 12:27:52;;;;;;;;;;;;;;;16.84;50.16;98948.75;5024968;28;19925;-62
2023/09/24 12:30:20;;;;;;;;;;;;;;;16.89;51.44;98945.81;5031023;28;19925;-62
2023/09/24 12:32:47;;;;;;;;;;;;;;;16.94;52.00;98948.41;5027860;28;19925;-62
2023/09/24 12:35:16;;;;;;;;;;;;;;;16.96;51.89;98952.41;5030550;28;19933;-62
2023/09/24 12:37:44;;;;;;;;;;;;;;;16.91;51.81;98954.53;5030881;28;19929;-62
2023/09/24 12:40:14;;;;;;;;;;;;;;;16.90;52.18;98958.41;5031135;28;19929;-62
2023/09/24 12:42:42;;;;;;;;;;;;;;;16.88;52.06;98949.69;5031254;28;20060;-62
2023/09/24 12:45:10;;;;;;;;;;;;;;;16.84;52.04;98948.75;5029436;28;19972;-62
2023/09/24 12:47:38;;;;;;;;;;;;;;;16.81;52.16;98949.38;5019944;28;19925;-62
2023/09/24 12:50:07;;;;;;;;;;;;;;;16.76;51.60;98942.94;5031204;28;19932;-62
2023/09/24 12:52:37;;;;;;;;;;;;;;;16.73;51.71;98940.06;5030657;28;19933;-62
2023/09/24 12:55:06;;;;;;;;;;;;;;;16.70;51.59;98937.94;5030493;28;19947;-62
2023/09/24 12:57:34;;;;;;;;;;;;;;;16.67;51.45;98947.63;5030695;28;19925;-62